sensor_id;sensor_type;location;lat;lon;timestamp;P1;durP1;ratioP1;P2;durP2;ratioP2
22103;SDS011;11218;48.886;9.426;2022-12-07T00:01:40;558.97;;;157.20;;
22103;SDS011;11218;48.886;9.426;2022-12-07T00:04:11;568.23;;;160.67;;
22103;SDS011;11218;48.886;9.426;2022-12-07T00:06:41;549.77;;;154.27;;
22103;SDS011;11218;48.886;9.426;2022-12-07T00:09:12;564.20;;;157.60;;
22103;SDS011;11218;48.886;9.426;2022-12-07T00:11:42;554.97;;;155.80;;
22103;SDS011;11218;48.886;9.426;2022-12-07T00:14:11;561.83;;;159.03;;
22103;SDS011;11218;48.886;9.426;2022-12-07T00:16:41;563.37;;;157.53;;
22103;SDS011;11218;48.886;9.426;2022-12-07T00:19:10;554.77;;;154.63;;
22103;SDS011;11218;48.886;9.426;2022-12-07T00:21:40;561.50;;;157.13;;
22103;SDS011;11218;48.886;9.426;2022-12-07T00:24:09;565.33;;;156.47;;
22103;SDS011;11218;48.886;9.426;2022-12-07T00:26:40;563.23;;;155.43;;
22103;SDS011;11218;48.886;9.426;2022-12-07T00:29:11;570.03;;;159.97;;
22103;SDS011;11218;48.886;9.426;2022-12-07T00:31:43;563.63;;;158.73;;
22103;SDS011;11218;48.886;9.426;2022-12-07T00:34:12;565.17;;;156.37;;
22103;SDS011;11218;48.886;9.426;2022-12-07T00:36:41;552.67;;;152.63;;
22103;SDS011;11218;48.886;9.426;2022-12-07T00:39:09;560.23;;;156.50;;
22103;SDS011;11218;48.886;9.426;2022-12-07T00:41:39;566.10;;;158.73;;
22103;SDS011;11218;48.886;9.426;2022-12-07T00:44:07;553.80;;;155.77;;
22103;SDS011;11218;48.886;9.426;2022-12-07T00:46:35;555.20;;;154.30;;
22103;SDS011;11218;48.886;9.426;2022-12-07T00:49:03;559.20;;;155.70;;
22103;SDS011;11218;48.886;9.426;2022-12-07T00:51:32;558.60;;;155.97;;
22103;SDS011;11218;48.886;9.426;2022-12-07T00:54:01;568.03;;;159.90;;
22103;SDS011;11218;48.886;9.426;2022-12-07T00:56:29;550.50;;;152.50;;
22103;SDS011;11218;48.886;9.426;2022-12-07T00:58:59;563.53;;;156.50;;
22103;SDS011;11218;48.886;9.426;2022-12-07T01:01:29;552.30;;;154.33;;
22103;SDS011;11218;48.886;9.426;2022-12-07T01:04:00;568.57;;;159.23;;
22103;SDS011;11218;48.886;9.426;2022-12-07T01:06:29;566.00;;;158.37;;
22103;SDS011;11218;48.886;9.426;2022-12-07T01:08:58;557.20;;;154.83;;
22103;SDS011;11218;48.886;9.426;2022-12-07T01:11:27;560.80;;;157.50;;
22103;SDS011;11218;48.886;9.426;2022-12-07T01:13:56;557.30;;;156.70;;
22103;SDS011;11218;48.886;9.426;2022-12-07T01:16:28;562.23;;;157.03;;
22103;SDS011;11218;48.886;9.426;2022-12-07T01:18:58;563.37;;;157.17;;
22103;SDS011;11218;48.886;9.426;2022-12-07T01:21:28;559.77;;;155.60;;
22103;SDS011;11218;48.886;9.426;2022-12-07T01:23:59;571.73;;;161.87;;
22103;SDS011;11218;48.886;9.426;2022-12-07T01:26:27;564.93;;;158.63;;
22103;SDS011;11218;48.886;9.426;2022-12-07T01:28:55;560.90;;;155.47;;
22103;SDS011;11218;48.886;9.426;2022-12-07T01:31:27;555.57;;;154.73;;
22103;SDS011;11218;48.886;9.426;2022-12-07T01:33:56;562.13;;;157.20;;
22103;SDS011;11218;48.886;9.426;2022-12-07T01:36:26;561.00;;;155.17;;
22103;SDS011;11218;48.886;9.426;2022-12-07T01:38:57;551.63;;;153.37;;
22103;SDS011;11218;48.886;9.426;2022-12-07T01:41:27;560.20;;;155.93;;
22103;SDS011;11218;48.886;9.426;2022-12-07T01:44:11;563.30;;;156.73;;
22103;SDS011;11218;48.886;9.426;2022-12-07T01:46:45;565.83;;;155.27;;
22103;SDS011;11218;48.886;9.426;2022-12-07T01:49:20;569.70;;;157.75;;
22103;SDS011;11218;48.886;9.426;2022-12-07T01:51:55;573.97;;;158.47;;
22103;SDS011;11218;48.886;9.426;2022-12-07T01:54:28;561.63;;;156.83;;
22103;SDS011;11218;48.886;9.426;2022-12-07T01:56:57;453.45;;;135.02;;
22103;SDS011;11218;48.886;9.426;2022-12-07T01:59:26;262.65;;;102.50;;
22103;SDS011;11218;48.886;9.426;2022-12-07T02:01:56;353.88;;;119.03;;
22103;SDS011;11218;48.886;9.426;2022-12-07T02:04:24;335.52;;;115.93;;
22103;SDS011;11218;48.886;9.426;2022-12-07T02:06:52;503.92;;;142.88;;
22103;SDS011;11218;48.886;9.426;2022-12-07T02:09:22;548.93;;;153.63;;
22103;SDS011;11218;48.886;9.426;2022-12-07T02:11:50;546.00;;;153.07;;
22103;SDS011;11218;48.886;9.426;2022-12-07T02:14:20;554.03;;;154.50;;
22103;SDS011;11218;48.886;9.426;2022-12-07T02:16:51;542.87;;;153.03;;
22103;SDS011;11218;48.886;9.426;2022-12-07T02:26:14;540.80;;;151.53;;
22103;SDS011;11218;48.886;9.426;2022-12-07T02:29:03;541.60;;;151.20;;
22103;SDS011;11218;48.886;9.426;2022-12-07T02:31:42;536.60;;;149.63;;
22103;SDS011;11218;48.886;9.426;2022-12-07T02:34:16;555.00;;;155.63;;
22103;SDS011;11218;48.886;9.426;2022-12-07T02:36:52;542.27;;;151.27;;
22103;SDS011;11218;48.886;9.426;2022-12-07T02:39:25;543.57;;;154.37;;
22103;SDS011;11218;48.886;9.426;2022-12-07T02:42:00;543.87;;;154.73;;
22103;SDS011;11218;48.886;9.426;2022-12-07T02:44:37;548.83;;;157.13;;
22103;SDS011;11218;48.886;9.426;2022-12-07T02:47:09;535.87;;;151.57;;
22103;SDS011;11218;48.886;9.426;2022-12-07T02:49:40;537.33;;;151.90;;
22103;SDS011;11218;48.886;9.426;2022-12-07T02:52:09;545.47;;;155.37;;
22103;SDS011;11218;48.886;9.426;2022-12-07T02:54:38;532.90;;;152.83;;
22103;SDS011;11218;48.886;9.426;2022-12-07T02:57:09;534.03;;;151.53;;
22103;SDS011;11218;48.886;9.426;2022-12-07T03:00:00;552.63;;;157.63;;
22103;SDS011;11218;48.886;9.426;2022-12-07T03:02:35;542.77;;;154.73;;
22103;SDS011;11218;48.886;9.426;2022-12-07T03:05:15;538.80;;;152.03;;
22103;SDS011;11218;48.886;9.426;2022-12-07T03:08:00;541.67;;;152.47;;
22103;SDS011;11218;48.886;9.426;2022-12-07T03:10:34;531.03;;;150.17;;
22103;SDS011;11218;48.886;9.426;2022-12-07T03:13:09;537.90;;;151.60;;
22103;SDS011;11218;48.886;9.426;2022-12-07T03:15:45;555.60;;;156.87;;
22103;SDS011;11218;48.886;9.426;2022-12-07T03:18:18;548.07;;;154.07;;
22103;SDS011;11218;48.886;9.426;2022-12-07T03:20:50;548.17;;;154.63;;
22103;SDS011;11218;48.886;9.426;2022-12-07T03:23:21;539.57;;;151.10;;
22103;SDS011;11218;48.886;9.426;2022-12-07T03:25:53;551.97;;;155.90;;
22103;SDS011;11218;48.886;9.426;2022-12-07T03:28:26;548.80;;;154.23;;
22103;SDS011;11218;48.886;9.426;2022-12-07T03:31:01;544.87;;;153.40;;
22103;SDS011;11218;48.886;9.426;2022-12-07T03:33:39;557.30;;;156.53;;
22103;SDS011;11218;48.886;9.426;2022-12-07T03:36:14;552.13;;;152.70;;
22103;SDS011;11218;48.886;9.426;2022-12-07T03:38:48;553.73;;;153.33;;
22103;SDS011;11218;48.886;9.426;2022-12-07T03:41:22;550.97;;;156.23;;
22103;SDS011;11218;48.886;9.426;2022-12-07T03:43:53;550.73;;;155.23;;
22103;SDS011;11218;48.886;9.426;2022-12-07T03:46:27;552.23;;;153.67;;
22103;SDS011;11218;48.886;9.426;2022-12-07T03:49:05;554.63;;;156.80;;
22103;SDS011;11218;48.886;9.426;2022-12-07T03:51:41;549.03;;;153.37;;
22103;SDS011;11218;48.886;9.426;2022-12-07T03:54:14;551.63;;;155.27;;
22103;SDS011;11218;48.886;9.426;2022-12-07T03:56:46;538.70;;;148.90;;
22103;SDS011;11218;48.886;9.426;2022-12-07T03:59:16;552.53;;;154.50;;
22103;SDS011;11218;48.886;9.426;2022-12-07T04:01:51;548.70;;;153.00;;
22103;SDS011;11218;48.886;9.426;2022-12-07T04:04:20;550.27;;;154.60;;
22103;SDS011;11218;48.886;9.426;2022-12-07T04:06:48;549.90;;;151.90;;
22103;SDS011;11218;48.886;9.426;2022-12-07T04:09:17;547.97;;;153.13;;
22103;SDS011;11218;48.886;9.426;2022-12-07T04:11:46;550.93;;;153.97;;
22103;SDS011;11218;48.886;9.426;2022-12-07T04:14:14;560.63;;;157.23;;
22103;SDS011;11218;48.886;9.426;2022-12-07T04:16:51;558.83;;;157.13;;
22103;SDS011;11218;48.886;9.426;2022-12-07T04:19:23;559.80;;;156.03;;
22103;SDS011;11218;48.886;9.426;2022-12-07T04:21:52;550.70;;;153.10;;
22103;SDS011;11218;48.886;9.426;2022-12-07T04:24:21;554.87;;;153.77;;
22103;SDS011;11218;48.886;9.426;2022-12-07T04:26:50;561.27;;;157.00;;
22103;SDS011;11218;48.886;9.426;2022-12-07T04:29:18;553.87;;;154.43;;
22103;SDS011;11218;48.886;9.426;2022-12-07T04:31:47;559.03;;;157.67;;
22103;SDS011;11218;48.886;9.426;2022-12-07T04:34:17;540.63;;;153.50;;
22103;SDS011;11218;48.886;9.426;2022-12-07T04:36:46;492.05;;;138.40;;
22103;SDS011;11218;48.886;9.426;2022-12-07T04:39:18;488.05;;;141.80;;
22103;SDS011;11218;48.886;9.426;2022-12-07T04:41:47;482.30;;;140.55;;
22103;SDS011;11218;48.886;9.426;2022-12-07T04:44:16;523.38;;;155.23;;
22103;SDS011;11218;48.886;9.426;2022-12-07T04:46:44;522.45;;;154.85;;
22103;SDS011;11218;48.886;9.426;2022-12-07T04:49:13;453.50;;;138.60;;
22103;SDS011;11218;48.886;9.426;2022-12-07T04:51:43;471.38;;;141.00;;
22103;SDS011;11218;48.886;9.426;2022-12-07T04:54:12;461.65;;;138.02;;
22103;SDS011;11218;48.886;9.426;2022-12-07T04:56:40;506.73;;;144.93;;
22103;SDS011;11218;48.886;9.426;2022-12-07T04:59:09;515.40;;;146.53;;
22103;SDS011;11218;48.886;9.426;2022-12-07T05:01:37;511.48;;;146.05;;
22103;SDS011;11218;48.886;9.426;2022-12-07T05:04:06;508.83;;;146.40;;
22103;SDS011;11218;48.886;9.426;2022-12-07T05:06:34;484.10;;;139.50;;
22103;SDS011;11218;48.886;9.426;2022-12-07T05:09:04;466.75;;;136.45;;
22103;SDS011;11218;48.886;9.426;2022-12-07T05:11:32;508.25;;;144.93;;
22103;SDS011;11218;48.886;9.426;2022-12-07T05:14:08;511.75;;;145.30;;
22103;SDS011;11218;48.886;9.426;2022-12-07T05:16:38;511.08;;;143.90;;
22103;SDS011;11218;48.886;9.426;2022-12-07T05:19:07;512.17;;;145.00;;
22103;SDS011;11218;48.886;9.426;2022-12-07T05:21:36;506.58;;;143.95;;
22103;SDS011;11218;48.886;9.426;2022-12-07T05:24:07;511.85;;;144.57;;
22103;SDS011;11218;48.886;9.426;2022-12-07T05:26:37;523.87;;;146.73;;
22103;SDS011;11218;48.886;9.426;2022-12-07T05:32:49;531.63;;;151.40;;
22103;SDS011;11218;48.886;9.426;2022-12-07T05:35:17;531.88;;;149.73;;
22103;SDS011;11218;48.886;9.426;2022-12-07T05:37:45;594.60;;;174.27;;
22103;SDS011;11218;48.886;9.426;2022-12-07T05:40:15;532.30;;;150.03;;
22103;SDS011;11218;48.886;9.426;2022-12-07T05:42:43;531.20;;;148.60;;
22103;SDS011;11218;48.886;9.426;2022-12-07T05:45:11;532.63;;;151.10;;
22103;SDS011;11218;48.886;9.426;2022-12-07T05:47:39;534.83;;;149.77;;
22103;SDS011;11218;48.886;9.426;2022-12-07T05:50:07;536.92;;;151.50;;
22103;SDS011;11218;48.886;9.426;2022-12-07T05:52:36;528.27;;;147.63;;
22103;SDS011;11218;48.886;9.426;2022-12-07T05:55:04;575.03;;;169.73;;
22103;SDS011;11218;48.886;9.426;2022-12-07T05:57:34;505.80;;;143.50;;
22103;SDS011;11218;48.886;9.426;2022-12-07T06:00:03;538.60;;;152.07;;
22103;SDS011;11218;48.886;9.426;2022-12-07T06:02:31;527.37;;;149.20;;
22103;SDS011;11218;48.886;9.426;2022-12-07T06:04:59;541.07;;;152.03;;
22103;SDS011;11218;48.886;9.426;2022-12-07T06:07:27;532.63;;;148.47;;
22103;SDS011;11218;48.886;9.426;2022-12-07T06:09:56;544.27;;;153.97;;
22103;SDS011;11218;48.886;9.426;2022-12-07T06:12:26;548.90;;;155.63;;
22103;SDS011;11218;48.886;9.426;2022-12-07T06:15:03;533.93;;;151.97;;
22103;SDS011;11218;48.886;9.426;2022-12-07T06:17:32;483.75;;;140.77;;
22103;SDS011;11218;48.886;9.426;2022-12-07T06:20:08;531.83;;;151.38;;
22103;SDS011;11218;48.886;9.426;2022-12-07T06:22:36;486.17;;;140.23;;
22103;SDS011;11218;48.886;9.426;2022-12-07T06:25:05;435.58;;;132.80;;
22103;SDS011;11218;48.886;9.426;2022-12-07T06:27:34;468.35;;;137.15;;
22103;SDS011;11218;48.886;9.426;2022-12-07T06:30:04;509.95;;;145.60;;
22103;SDS011;11218;48.886;9.426;2022-12-07T06:32:35;512.97;;;144.50;;
22103;SDS011;11218;48.886;9.426;2022-12-07T06:35:04;523.63;;;146.67;;
22103;SDS011;11218;48.886;9.426;2022-12-07T06:37:34;474.15;;;138.13;;
22103;SDS011;11218;48.886;9.426;2022-12-07T06:40:02;524.05;;;149.02;;
22103;SDS011;11218;48.886;9.426;2022-12-07T06:42:31;516.83;;;144.82;;
22103;SDS011;11218;48.886;9.426;2022-12-07T06:44:59;473.77;;;138.13;;
22103;SDS011;11218;48.886;9.426;2022-12-07T06:47:28;476.30;;;138.18;;
22103;SDS011;11218;48.886;9.426;2022-12-07T06:50:06;417.17;;;129.45;;
22103;SDS011;11218;48.886;9.426;2022-12-07T06:52:35;461.70;;;137.90;;
22103;SDS011;11218;48.886;9.426;2022-12-07T06:55:03;438.52;;;132.70;;
22103;SDS011;11218;48.886;9.426;2022-12-07T06:57:32;477.20;;;140.13;;
22103;SDS011;11218;48.886;9.426;2022-12-07T07:00:00;496.00;;;140.48;;
22103;SDS011;11218;48.886;9.426;2022-12-07T07:02:31;521.30;;;147.15;;
22103;SDS011;11218;48.886;9.426;2022-12-07T07:04:59;520.65;;;146.25;;
22103;SDS011;11218;48.886;9.426;2022-12-07T07:07:27;474.30;;;140.05;;
22103;SDS011;11218;48.886;9.426;2022-12-07T07:09:55;420.77;;;131.55;;
22103;SDS011;11218;48.886;9.426;2022-12-07T07:12:23;487.75;;;141.18;;
22103;SDS011;11218;48.886;9.426;2022-12-07T07:14:51;453.98;;;139.35;;
22103;SDS011;11218;48.886;9.426;2022-12-07T07:17:19;457.10;;;135.30;;
22103;SDS011;11218;48.886;9.426;2022-12-07T07:19:48;442.17;;;132.55;;
22103;SDS011;11218;48.886;9.426;2022-12-07T07:22:16;391.35;;;122.65;;
22103;SDS011;11218;48.886;9.426;2022-12-07T07:24:44;354.95;;;117.82;;
22103;SDS011;11218;48.886;9.426;2022-12-07T07:27:12;413.30;;;129.38;;
22103;SDS011;11218;48.886;9.426;2022-12-07T07:29:40;377.63;;;121.47;;
22103;SDS011;11218;48.886;9.426;2022-12-07T07:32:08;434.63;;;129.80;;
22103;SDS011;11218;48.886;9.426;2022-12-07T07:34:36;385.55;;;121.85;;
22103;SDS011;11218;48.886;9.426;2022-12-07T07:37:06;399.42;;;127.78;;
22103;SDS011;11218;48.886;9.426;2022-12-07T07:39:34;423.08;;;130.45;;
22103;SDS011;11218;48.886;9.426;2022-12-07T07:42:02;507.17;;;145.23;;
22103;SDS011;11218;48.886;9.426;2022-12-07T07:44:30;412.75;;;126.70;;
22103;SDS011;11218;48.886;9.426;2022-12-07T07:47:00;433.45;;;129.40;;
22103;SDS011;11218;48.886;9.426;2022-12-07T07:49:28;459.47;;;133.70;;
22103;SDS011;11218;48.886;9.426;2022-12-07T07:51:57;514.70;;;146.95;;
22103;SDS011;11218;48.886;9.426;2022-12-07T07:54:27;530.08;;;148.75;;
22103;SDS011;11218;48.886;9.426;2022-12-07T07:56:55;517.33;;;144.63;;
22103;SDS011;11218;48.886;9.426;2022-12-07T07:59:23;513.25;;;144.13;;
22103;SDS011;11218;48.886;9.426;2022-12-07T08:01:51;497.67;;;139.63;;
22103;SDS011;11218;48.886;9.426;2022-12-07T08:04:19;510.58;;;143.65;;
22103;SDS011;11218;48.886;9.426;2022-12-07T08:06:48;471.40;;;137.75;;
22103;SDS011;11218;48.886;9.426;2022-12-07T08:09:15;463.67;;;135.75;;
22103;SDS011;11218;48.886;9.426;2022-12-07T08:11:45;443.00;;;131.02;;
22103;SDS011;11218;48.886;9.426;2022-12-07T08:14:13;526.80;;;144.00;;
22103;SDS011;11218;48.886;9.426;2022-12-07T08:16:41;447.98;;;133.32;;
22103;SDS011;11218;48.886;9.426;2022-12-07T08:19:09;402.90;;;124.55;;
22103;SDS011;11218;48.886;9.426;2022-12-07T08:21:37;407.65;;;126.22;;
22103;SDS011;11218;48.886;9.426;2022-12-07T08:24:05;481.85;;;142.23;;
22103;SDS011;11218;48.886;9.426;2022-12-07T08:26:35;498.33;;;146.65;;
22103;SDS011;11218;48.886;9.426;2022-12-07T08:29:04;454.10;;;141.52;;
22103;SDS011;11218;48.886;9.426;2022-12-07T08:31:32;433.80;;;131.68;;
22103;SDS011;11218;48.886;9.426;2022-12-07T08:34:01;439.40;;;131.98;;
22103;SDS011;11218;48.886;9.426;2022-12-07T08:36:29;521.83;;;141.90;;
22103;SDS011;11218;48.886;9.426;2022-12-07T08:38:57;422.25;;;130.57;;
22103;SDS011;11218;48.886;9.426;2022-12-07T08:41:45;433.92;;;128.52;;
22103;SDS011;11218;48.886;9.426;2022-12-07T08:44:14;466.80;;;132.23;;
22103;SDS011;11218;48.886;9.426;2022-12-07T08:46:43;374.00;;;117.20;;
22103;SDS011;11218;48.886;9.426;2022-12-07T08:49:17;381.58;;;120.10;;
22103;SDS011;11218;48.886;9.426;2022-12-07T08:51:49;364.60;;;118.43;;
22103;SDS011;11218;48.886;9.426;2022-12-07T08:54:17;387.58;;;123.38;;
22103;SDS011;11218;48.886;9.426;2022-12-07T08:56:46;437.10;;;130.00;;
22103;SDS011;11218;48.886;9.426;2022-12-07T08:59:25;417.15;;;128.07;;
22103;SDS011;11218;48.886;9.426;2022-12-07T09:01:54;475.23;;;135.05;;
22103;SDS011;11218;48.886;9.426;2022-12-07T09:04:22;468.70;;;136.65;;
22103;SDS011;11218;48.886;9.426;2022-12-07T09:06:50;428.60;;;130.27;;
22103;SDS011;11218;48.886;9.426;2022-12-07T09:09:18;499.08;;;140.55;;
22103;SDS011;11218;48.886;9.426;2022-12-07T09:11:46;455.05;;;132.18;;
22103;SDS011;11218;48.886;9.426;2022-12-07T09:14:14;450.50;;;133.63;;
22103;SDS011;11218;48.886;9.426;2022-12-07T09:16:44;429.70;;;132.25;;
22103;SDS011;11218;48.886;9.426;2022-12-07T09:19:12;383.35;;;123.53;;
22103;SDS011;11218;48.886;9.426;2022-12-07T09:21:41;434.33;;;131.65;;
22103;SDS011;11218;48.886;9.426;2022-12-07T09:24:09;492.25;;;144.27;;
22103;SDS011;11218;48.886;9.426;2022-12-07T09:26:37;455.55;;;133.95;;
22103;SDS011;11218;48.886;9.426;2022-12-07T09:29:06;483.75;;;137.38;;
22103;SDS011;11218;48.886;9.426;2022-12-07T09:31:35;494.17;;;140.30;;
22103;SDS011;11218;48.886;9.426;2022-12-07T09:34:06;466.52;;;138.63;;
22103;SDS011;11218;48.886;9.426;2022-12-07T09:36:34;511.70;;;145.88;;
22103;SDS011;11218;48.886;9.426;2022-12-07T09:39:02;444.15;;;132.05;;
22103;SDS011;11218;48.886;9.426;2022-12-07T09:41:32;437.40;;;133.35;;
22103;SDS011;11218;48.886;9.426;2022-12-07T09:44:02;355.48;;;118.05;;
22103;SDS011;11218;48.886;9.426;2022-12-07T09:46:34;406.88;;;127.40;;
22103;SDS011;11218;48.886;9.426;2022-12-07T09:49:05;407.85;;;129.98;;
22103;SDS011;11218;48.886;9.426;2022-12-07T09:51:40;341.60;;;115.47;;
22103;SDS011;11218;48.886;9.426;2022-12-07T09:54:08;417.63;;;130.85;;
22103;SDS011;11218;48.886;9.426;2022-12-07T09:56:39;448.33;;;133.85;;
22103;SDS011;11218;48.886;9.426;2022-12-07T09:59:09;411.67;;;126.93;;
22103;SDS011;11218;48.886;9.426;2022-12-07T10:01:41;433.67;;;131.48;;
22103;SDS011;11218;48.886;9.426;2022-12-07T10:04:11;402.05;;;126.50;;
22103;SDS011;11218;48.886;9.426;2022-12-07T10:06:43;419.73;;;128.18;;
22103;SDS011;11218;48.886;9.426;2022-12-07T10:09:12;402.30;;;127.70;;
22103;SDS011;11218;48.886;9.426;2022-12-07T10:12:00;272.23;;;101.65;;
22103;SDS011;11218;48.886;9.426;2022-12-07T10:14:30;424.63;;;133.32;;
22103;SDS011;11218;48.886;9.426;2022-12-07T10:17:32;380.63;;;121.75;;
22103;SDS011;11218;48.886;9.426;2022-12-07T10:20:11;410.30;;;126.65;;
22103;SDS011;11218;48.886;9.426;2022-12-07T10:22:53;398.48;;;124.85;;
22103;SDS011;11218;48.886;9.426;2022-12-07T10:25:24;461.80;;;136.70;;
22103;SDS011;11218;48.886;9.426;2022-12-07T10:27:57;412.15;;;126.57;;
22103;SDS011;11218;48.886;9.426;2022-12-07T10:30:27;406.25;;;128.82;;
22103;SDS011;11218;48.886;9.426;2022-12-07T10:32:55;400.00;;;127.50;;
22103;SDS011;11218;48.886;9.426;2022-12-07T10:35:26;376.88;;;123.40;;
22103;SDS011;11218;48.886;9.426;2022-12-07T10:37:56;424.45;;;129.55;;
22103;SDS011;11218;48.886;9.426;2022-12-07T10:40:30;450.88;;;134.95;;
22103;SDS011;11218;48.886;9.426;2022-12-07T10:43:01;410.17;;;127.93;;
22103;SDS011;11218;48.886;9.426;2022-12-07T10:45:34;397.00;;;125.15;;
22103;SDS011;11218;48.886;9.426;2022-12-07T10:48:29;289.80;;;107.35;;
22103;SDS011;11218;48.886;9.426;2022-12-07T10:51:07;322.38;;;110.88;;
22103;SDS011;11218;48.886;9.426;2022-12-07T10:53:46;285.20;;;104.05;;
22103;SDS011;11218;48.886;9.426;2022-12-07T10:56:29;211.93;;;90.80;;
22103;SDS011;11218;48.886;9.426;2022-12-07T11:02:13;215.73;;;90.90;;
22103;SDS011;11218;48.886;9.426;2022-12-07T11:04:55;258.65;;;99.65;;
22103;SDS011;11218;48.886;9.426;2022-12-07T11:07:38;228.75;;;94.88;;
22103;SDS011;11218;48.886;9.426;2022-12-07T11:10:12;297.17;;;107.85;;
22103;SDS011;11218;48.886;9.426;2022-12-07T11:12:50;311.10;;;109.78;;
22103;SDS011;11218;48.886;9.426;2022-12-07T11:15:28;307.00;;;108.63;;
22103;SDS011;11218;48.886;9.426;2022-12-07T11:18:09;349.80;;;114.60;;
22103;SDS011;11218;48.886;9.426;2022-12-07T11:20:43;381.05;;;125.32;;
22103;SDS011;11218;48.886;9.426;2022-12-07T11:23:21;403.00;;;126.00;;
22103;SDS011;11218;48.886;9.426;2022-12-07T11:26:01;371.48;;;123.10;;
22103;SDS011;11218;48.886;9.426;2022-12-07T11:28:39;337.98;;;117.53;;
22103;SDS011;11218;48.886;9.426;2022-12-07T11:31:22;343.10;;;114.85;;
22103;SDS011;11218;48.886;9.426;2022-12-07T11:33:57;342.75;;;115.68;;
22103;SDS011;11218;48.886;9.426;2022-12-07T11:36:33;334.10;;;113.22;;
22103;SDS011;11218;48.886;9.426;2022-12-07T11:39:12;256.80;;;100.63;;
22103;SDS011;11218;48.886;9.426;2022-12-07T11:41:50;298.23;;;107.78;;
22103;SDS011;11218;48.886;9.426;2022-12-07T11:44:25;327.58;;;111.85;;
22103;SDS011;11218;48.886;9.426;2022-12-07T11:46:58;289.52;;;104.47;;
22103;SDS011;11218;48.886;9.426;2022-12-07T11:49:39;284.83;;;108.10;;
22103;SDS011;11218;48.886;9.426;2022-12-07T11:52:13;253.45;;;100.47;;
22103;SDS011;11218;48.886;9.426;2022-12-07T11:54:49;232.18;;;96.43;;
22103;SDS011;11218;48.886;9.426;2022-12-07T11:57:20;282.63;;;106.78;;
22103;SDS011;11218;48.886;9.426;2022-12-07T11:59:57;243.48;;;100.47;;
22103;SDS011;11218;48.886;9.426;2022-12-07T12:02:32;234.25;;;99.82;;
22103;SDS011;11218;48.886;9.426;2022-12-07T12:05:06;250.70;;;102.43;;
22103;SDS011;11218;48.886;9.426;2022-12-07T12:07:42;233.38;;;95.90;;
22103;SDS011;11218;48.886;9.426;2022-12-07T12:10:40;237.65;;;99.13;;
22103;SDS011;11218;48.886;9.426;2022-12-07T12:13:25;250.52;;;102.40;;
22103;SDS011;11218;48.886;9.426;2022-12-07T12:16:43;247.32;;;99.47;;
22103;SDS011;11218;48.886;9.426;2022-12-07T12:19:32;304.77;;;109.47;;
22103;SDS011;11218;48.886;9.426;2022-12-07T12:22:06;264.73;;;104.25;;
22103;SDS011;11218;48.886;9.426;2022-12-07T12:24:41;211.90;;;92.50;;
22103;SDS011;11218;48.886;9.426;2022-12-07T12:27:17;228.68;;;95.00;;
22103;SDS011;11218;48.886;9.426;2022-12-07T12:29:52;223.93;;;93.90;;
22103;SDS011;11218;48.886;9.426;2022-12-07T12:32:22;264.60;;;103.65;;
22103;SDS011;11218;48.886;9.426;2022-12-07T12:35:02;263.00;;;104.95;;
22103;SDS011;11218;48.886;9.426;2022-12-07T12:37:50;279.00;;;108.82;;
22103;SDS011;11218;48.886;9.426;2022-12-07T12:55:25;364.63;;;121.97;;
22103;SDS011;11218;48.886;9.426;2022-12-07T13:06:51;294.83;;;109.28;;
22103;SDS011;11218;48.886;9.426;2022-12-07T13:09:23;195.27;;;88.63;;
22103;SDS011;11218;48.886;9.426;2022-12-07T13:11:57;243.52;;;100.25;;
22103;SDS011;11218;48.886;9.426;2022-12-07T13:14:51;216.80;;;93.07;;
22103;SDS011;11218;48.886;9.426;2022-12-07T13:23:15;231.07;;;107.00;;
22103;SDS011;11218;48.886;9.426;2022-12-07T13:25:51;257.05;;;104.72;;
22103;SDS011;11218;48.886;9.426;2022-12-07T13:28:23;251.80;;;103.50;;
22103;SDS011;11218;48.886;9.426;2022-12-07T13:31:00;233.85;;;99.13;;
22103;SDS011;11218;48.886;9.426;2022-12-07T13:33:39;207.93;;;93.38;;
22103;SDS011;11218;48.886;9.426;2022-12-07T13:36:12;248.30;;;101.20;;
22103;SDS011;11218;48.886;9.426;2022-12-07T13:38:49;276.92;;;107.30;;
22103;SDS011;11218;48.886;9.426;2022-12-07T13:41:22;171.68;;;82.22;;
22103;SDS011;11218;48.886;9.426;2022-12-07T13:43:54;222.80;;;96.90;;
22103;SDS011;11218;48.886;9.426;2022-12-07T13:46:32;198.23;;;89.97;;
22103;SDS011;11218;48.886;9.426;2022-12-07T13:52:07;192.80;;;88.68;;
22103;SDS011;11218;48.886;9.426;2022-12-07T13:54:43;159.38;;;79.75;;
22103;SDS011;11218;48.886;9.426;2022-12-07T13:57:14;264.58;;;103.95;;
22103;SDS011;11218;48.886;9.426;2022-12-07T13:59:42;271.13;;;106.82;;
22103;SDS011;11218;48.886;9.426;2022-12-07T14:02:17;271.60;;;106.75;;
22103;SDS011;11218;48.886;9.426;2022-12-07T14:04:48;271.42;;;106.22;;
22103;SDS011;11218;48.886;9.426;2022-12-07T14:07:21;254.10;;;102.70;;
22103;SDS011;11218;48.886;9.426;2022-12-07T14:09:54;233.38;;;98.28;;
22103;SDS011;11218;48.886;9.426;2022-12-07T14:12:29;243.52;;;101.45;;
22103;SDS011;11218;48.886;9.426;2022-12-07T14:14:59;236.38;;;100.55;;
22103;SDS011;11218;48.886;9.426;2022-12-07T14:17:29;173.68;;;85.50;;
22103;SDS011;11218;48.886;9.426;2022-12-07T14:19:57;255.65;;;106.97;;
22103;SDS011;11218;48.886;9.426;2022-12-07T14:22:28;208.93;;;95.13;;
22103;SDS011;11218;48.886;9.426;2022-12-07T14:25:14;209.63;;;93.97;;
22103;SDS011;11218;48.886;9.426;2022-12-07T14:27:50;247.55;;;102.05;;
22103;SDS011;11218;48.886;9.426;2022-12-07T14:30:23;210.20;;;92.03;;
22103;SDS011;11218;48.886;9.426;2022-12-07T14:32:54;248.57;;;97.32;;
22103;SDS011;11218;48.886;9.426;2022-12-07T14:35:24;253.55;;;102.22;;
22103;SDS011;11218;48.886;9.426;2022-12-07T14:37:52;330.92;;;119.45;;
22103;SDS011;11218;48.886;9.426;2022-12-07T14:40:21;323.95;;;118.90;;
22103;SDS011;11218;48.886;9.426;2022-12-07T14:42:52;282.60;;;109.97;;
22103;SDS011;11218;48.886;9.426;2022-12-07T14:45:23;287.30;;;113.65;;
22103;SDS011;11218;48.886;9.426;2022-12-07T14:47:52;335.58;;;121.72;;
22103;SDS011;11218;48.886;9.426;2022-12-07T14:50:40;275.52;;;111.15;;
22103;SDS011;11218;48.886;9.426;2022-12-07T14:53:33;263.27;;;108.00;;
22103;SDS011;11218;48.886;9.426;2022-12-07T14:56:04;217.68;;;95.85;;
22103;SDS011;11218;48.886;9.426;2022-12-07T14:58:34;211.38;;;94.05;;
22103;SDS011;11218;48.886;9.426;2022-12-07T15:01:02;222.02;;;96.22;;
22103;SDS011;11218;48.886;9.426;2022-12-07T15:03:31;232.75;;;99.93;;
22103;SDS011;11218;48.886;9.426;2022-12-07T15:06:01;268.95;;;107.20;;
22103;SDS011;11218;48.886;9.426;2022-12-07T15:08:30;286.83;;;112.50;;
22103;SDS011;11218;48.886;9.426;2022-12-07T15:10:59;288.58;;;111.75;;
22103;SDS011;11218;48.886;9.426;2022-12-07T15:13:27;301.15;;;113.20;;